sensor_id;sensor_type;location;lat;lon;timestamp;pressure;altitude;pressure_sealevel;temperature;humidity
13235;BME280;6683;48.506;9.050;2023-08-30T00:01:36;97532.78;;;16.51;76.82
13235;BME280;6683;48.506;9.050;2023-08-30T00:04:38;97535.88;;;16.48;76.77
13235;BME280;6683;48.506;9.050;2023-08-30T00:07:40;97543.31;;;16.46;76.83
13235;BME280;6683;48.506;9.050;2023-08-30T00:10:44;97536.38;;;16.45;76.83
13235;BME280;6683;48.506;9.050;2023-08-30T00:13:46;97535.81;;;16.43;77.03
13235;BME280;6683;48.506;9.050;2023-08-30T00:16:48;97535.25;;;16.41;76.94
13235;BME280;6683;48.506;9.050;2023-08-30T00:19:50;97534.19;;;16.42;77.12
13235;BME280;6683;48.506;9.050;2023-08-30T00:22:53;97537.66;;;16.43;77.11
13235;BME280;6683;48.506;9.050;2023-08-30T00:25:57;97532.59;;;16.41;77.14
13235;BME280;6683;48.506;9.050;2023-08-30T00:28:59;97537.66;;;16.43;77.16
13235;BME280;6683;48.506;9.050;2023-08-30T00:32:01;97530.50;;;16.43;77.20
13235;BME280;6683;48.506;9.050;2023-08-30T00:35:04;97527.81;;;16.43;77.24
13235;BME280;6683;48.506;9.050;2023-08-30T00:38:06;97522.50;;;16.43;77.03
13235;BME280;6683;48.506;9.050;2023-08-30T00:41:09;97527.25;;;16.41;76.94
13235;BME280;6683;48.506;9.050;2023-08-30T00:44:11;97518.69;;;16.39;76.87
13235;BME280;6683;48.506;9.050;2023-08-30T00:47:13;97509.06;;;16.38;76.93
13235;BME280;6683;48.506;9.050;2023-08-30T00:50:16;97502.38;;;16.36;76.90
13235;BME280;6683;48.506;9.050;2023-08-30T00:53:18;97501.81;;;16.34;76.75
13235;BME280;6683;48.506;9.050;2023-08-30T00:56:22;97505.75;;;16.31;76.67
13235;BME280;6683;48.506;9.050;2023-08-30T00:59:25;97506.25;;;16.28;76.51
13235;BME280;6683;48.506;9.050;2023-08-30T01:02:27;97492.03;;;16.23;76.89
13235;BME280;6683;48.506;9.050;2023-08-30T01:05:30;97490.09;;;16.18;77.02
13235;BME280;6683;48.506;9.050;2023-08-30T01:08:32;97482.56;;;16.15;77.15
13235;BME280;6683;48.506;9.050;2023-08-30T01:11:48;97478.28;;;16.14;77.55
13235;BME280;6683;48.506;9.050;2023-08-30T01:14:57;97475.63;;;16.14;77.19
13235;BME280;6683;48.506;9.050;2023-08-30T01:18:00;97475.06;;;16.12;77.01
13235;BME280;6683;48.506;9.050;2023-08-30T01:21:11;97459.56;;;16.09;76.82
13235;BME280;6683;48.506;9.050;2023-08-30T01:24:40;97468.59;;;16.08;77.21
13235;BME280;6683;48.506;9.050;2023-08-30T01:27:46;97474.97;;;16.07;77.08
13235;BME280;6683;48.506;9.050;2023-08-30T01:30:49;97479.47;;;16.07;77.00
13235;BME280;6683;48.506;9.050;2023-08-30T01:33:55;97486.88;;;16.05;77.16
13235;BME280;6683;48.506;9.050;2023-08-30T01:36:58;97485.03;;;16.05;77.11
13235;BME280;6683;48.506;9.050;2023-08-30T01:40:02;97480.78;;;16.04;77.44
13235;BME280;6683;48.506;9.050;2023-08-30T01:43:08;97480.78;;;16.04;77.31
13235;BME280;6683;48.506;9.050;2023-08-30T01:46:11;97477.06;;;16.05;76.95
13235;BME280;6683;48.506;9.050;2023-08-30T01:49:14;97477.50;;;16.02;76.96
13235;BME280;6683;48.506;9.050;2023-08-30T01:52:17;97473.81;;;16.03;77.09
13235;BME280;6683;48.506;9.050;2023-08-30T01:55:20;97475.66;;;16.02;76.87
13235;BME280;6683;48.506;9.050;2023-08-30T01:58:24;97481.50;;;15.99;76.68
13235;BME280;6683;48.506;9.050;2023-08-30T02:01:26;97480.91;;;15.97;76.69
13235;BME280;6683;48.506;9.050;2023-08-30T02:04:28;97483.78;;;15.96;76.83
13235;BME280;6683;48.506;9.050;2023-08-30T02:07:39;97483.47;;;15.92;76.89
13235;BME280;6683;48.506;9.050;2023-08-30T02:10:48;97478.03;;;15.87;76.73
13235;BME280;6683;48.506;9.050;2023-08-30T02:13:58;97481.44;;;15.83;76.43
13235;BME280;6683;48.506;9.050;2023-08-30T02:17:01;97475.53;;;15.81;76.55
13235;BME280;6683;48.506;9.050;2023-08-30T02:20:06;97481.56;;;15.76;76.33
13235;BME280;6683;48.506;9.050;2023-08-30T02:23:09;97491.28;;;15.71;76.44
13235;BME280;6683;48.506;9.050;2023-08-30T02:26:12;97487.25;;;15.68;76.60
13235;BME280;6683;48.506;9.050;2023-08-30T02:29:15;97496.53;;;15.66;76.56
13235;BME280;6683;48.506;9.050;2023-08-30T02:32:17;97490.88;;;15.62;76.63
13235;BME280;6683;48.506;9.050;2023-08-30T02:35:21;97492.34;;;15.58;76.37
13235;BME280;6683;48.506;9.050;2023-08-30T02:38:23;97492.03;;;15.55;76.64
13235;BME280;6683;48.506;9.050;2023-08-30T02:41:25;97489.59;;;15.53;76.69
13235;BME280;6683;48.506;9.050;2023-08-30T02:44:29;97496.19;;;15.51;76.69
13235;BME280;6683;48.506;9.050;2023-08-30T02:47:31;97493.78;;;15.49;76.55
13235;BME280;6683;48.506;9.050;2023-08-30T02:50:33;97500.94;;;15.49;76.48
13235;BME280;6683;48.506;9.050;2023-08-30T02:53:35;97495.28;;;15.45;76.37
13235;BME280;6683;48.506;9.050;2023-08-30T02:56:37;97495.72;;;15.42;76.51
13235;BME280;6683;48.506;9.050;2023-08-30T02:59:40;97495.16;;;15.40;76.70
13235;BME280;6683;48.506;9.050;2023-08-30T03:02:43;97499.88;;;15.38;76.68
13235;BME280;6683;48.506;9.050;2023-08-30T03:05:45;97497.22;;;15.38;76.76
13235;BME280;6683;48.506;9.050;2023-08-30T03:08:47;97490.31;;;15.37;76.80
13235;BME280;6683;48.506;9.050;2023-08-30T03:11:49;97486.84;;;15.37;76.68
13235;BME280;6683;48.506;9.050;2023-08-30T03:14:53;97485.19;;;15.36;76.59
13235;BME280;6683;48.506;9.050;2023-08-30T03:17:55;97486.03;;;15.36;76.72
13235;BME280;6683;48.506;9.050;2023-08-30T03:21:00;97483.34;;;15.36;76.72
13235;BME280;6683;48.506;9.050;2023-08-30T03:24:04;97476.44;;;15.35;76.68
13235;BME280;6683;48.506;9.050;2023-08-30T03:27:07;97472.97;;;15.35;76.57
13235;BME280;6683;48.506;9.050;2023-08-30T03:30:11;97476.06;;;15.32;76.57
13235;BME280;6683;48.506;9.050;2023-08-30T03:33:14;97474.69;;;15.29;76.68
13235;BME280;6683;48.506;9.050;2023-08-30T03:36:18;97468.00;;;15.27;76.55
13235;BME280;6683;48.506;9.050;2023-08-30T03:39:20;97476.19;;;15.25;76.71
13235;BME280;6683;48.506;9.050;2023-08-30T03:42:22;97476.19;;;15.25;76.88
13235;BME280;6683;48.506;9.050;2023-08-30T03:45:26;97474.59;;;15.24;76.95
13235;BME280;6683;48.506;9.050;2023-08-30T03:48:28;97471.94;;;15.24;76.80
13235;BME280;6683;48.506;9.050;2023-08-30T03:51:30;97478.84;;;15.25;76.95
13235;BME280;6683;48.506;9.050;2023-08-30T03:54:32;97482.34;;;15.26;76.95
13235;BME280;6683;48.506;9.050;2023-08-30T03:57:34;97473.31;;;15.27;76.85
13235;BME280;6683;48.506;9.050;2023-08-30T04:00:38;97479.66;;;15.26;76.73
13235;BME280;6683;48.506;9.050;2023-08-30T04:03:41;97486.03;;;15.25;76.69
13235;BME280;6683;48.506;9.050;2023-08-30T04:06:43;97486.25;;;15.23;76.74
13235;BME280;6683;48.506;9.050;2023-08-30T04:09:45;97482.00;;;15.22;76.73
13235;BME280;6683;48.506;9.050;2023-08-30T04:12:47;97490.22;;;15.20;76.72
13235;BME280;6683;48.506;9.050;2023-08-30T04:15:51;97486.75;;;15.20;76.80
13235;BME280;6683;48.506;9.050;2023-08-30T04:18:54;97491.00;;;15.21;76.67
13235;BME280;6683;48.506;9.050;2023-08-30T04:21:56;97484.53;;;15.17;76.56
13235;BME280;6683;48.506;9.050;2023-08-30T04:24:58;97482.34;;;15.14;76.50
13235;BME280;6683;48.506;9.050;2023-08-30T04:28:00;97488.13;;;15.11;76.49
13235;BME280;6683;48.506;9.050;2023-08-30T04:31:03;97487.78;;;15.07;76.63
13235;BME280;6683;48.506;9.050;2023-08-30T04:34:05;97491.47;;;15.06;76.58
13235;BME280;6683;48.506;9.050;2023-08-30T04:37:08;97486.16;;;15.06;76.61
13235;BME280;6683;48.506;9.050;2023-08-30T04:40:10;97490.91;;;15.04;76.63
13235;BME280;6683;48.506;9.050;2023-08-30T04:43:13;97490.09;;;15.04;76.60
13235;BME280;6683;48.506;9.050;2023-08-30T04:46:16;97491.13;;;15.03;76.76
13235;BME280;6683;48.506;9.050;2023-08-30T04:49:18;97488.47;;;15.03;76.61
13235;BME280;6683;48.506;9.050;2023-08-30T04:52:21;97490.31;;;15.02;76.63
13235;BME280;6683;48.506;9.050;2023-08-30T04:55:24;97481.53;;;15.02;76.85
13235;BME280;6683;48.506;9.050;2023-08-30T04:58:26;97479.47;;;15.04;76.96
13235;BME280;6683;48.506;9.050;2023-08-30T05:01:30;97484.56;;;15.05;77.05
13235;BME280;6683;48.506;9.050;2023-08-30T05:04:32;97472.88;;;15.06;76.98
13235;BME280;6683;48.506;9.050;2023-08-30T05:07:34;97471.84;;;15.07;77.18
13235;BME280;6683;48.506;9.050;2023-08-30T05:10:36;97475.06;;;15.09;77.14
13235;BME280;6683;48.506;9.050;2023-08-30T05:13:38;97479.13;;;15.12;77.27
13235;BME280;6683;48.506;9.050;2023-08-30T05:16:42;97474.38;;;15.14;77.23
13235;BME280;6683;48.506;9.050;2023-08-30T05:19:44;97474.72;;;15.17;77.55
13235;BME280;6683;48.506;9.050;2023-08-30T05:22:46;97475.88;;;15.21;77.60
13235;BME280;6683;48.506;9.050;2023-08-30T05:25:48;97469.03;;;15.26;77.54
13235;BME280;6683;48.506;9.050;2023-08-30T05:28:50;97477.34;;;15.29;77.44
13235;BME280;6683;48.506;9.050;2023-08-30T05:31:54;97473.22;;;15.33;77.53
13235;BME280;6683;48.506;9.050;2023-08-30T05:34:56;97475.13;;;15.38;77.46
13235;BME280;6683;48.506;9.050;2023-08-30T05:37:58;97475.28;;;15.43;77.34
13235;BME280;6683;48.506;9.050;2023-08-30T05:41:00;97472.97;;;15.46;77.38
13235;BME280;6683;48.506;9.050;2023-08-30T05:44:04;97470.66;;;15.50;77.31
13235;BME280;6683;48.506;9.050;2023-08-30T05:47:08;97471.22;;;15.52;77.29
13235;BME280;6683;48.506;9.050;2023-08-30T05:50:15;97470.50;;;15.56;77.40
13235;BME280;6683;48.506;9.050;2023-08-30T05:53:17;97475.38;;;15.59;77.40
13235;BME280;6683;48.506;9.050;2023-08-30T05:56:19;97472.00;;;15.64;77.45
13235;BME280;6683;48.506;9.050;2023-08-30T05:59:21;97479.28;;;15.68;77.40
13235;BME280;6683;48.506;9.050;2023-08-30T06:02:25;97481.69;;;15.70;77.26
13235;BME280;6683;48.506;9.050;2023-08-30T06:05:27;97481.81;;;15.75;77.29
13235;BME280;6683;48.506;9.050;2023-08-30T06:08:29;97481.56;;;15.76;77.19
13235;BME280;6683;48.506;9.050;2023-08-30T06:11:32;97484.81;;;15.78;77.39
13235;BME280;6683;48.506;9.050;2023-08-30T06:14:34;97486.19;;;15.81;77.52
13235;BME280;6683;48.506;9.050;2023-08-30T06:17:37;97491.84;;;15.84;77.51
13235;BME280;6683;48.506;9.050;2023-08-30T06:20:40;97492.16;;;15.88;77.72
13235;BME280;6683;48.506;9.050;2023-08-30T06:23:43;97496.22;;;15.90;77.24
13235;BME280;6683;48.506;9.050;2023-08-30T06:26:45;97490.63;;;15.92;77.60
13235;BME280;6683;48.506;9.050;2023-08-30T06:29:47;97489.38;;;15.94;77.74
13235;BME280;6683;48.506;9.050;2023-08-30T06:32:50;97494.22;;;15.97;77.75
13235;BME280;6683;48.506;9.050;2023-08-30T06:35:53;97493.72;;;16.00;77.81
13235;BME280;6683;48.506;9.050;2023-08-30T06:38:57;97490.94;;;16.07;77.96
13235;BME280;6683;48.506;9.050;2023-08-30T06:41:59;97494.47;;;16.13;78.04
13235;BME280;6683;48.506;9.050;2023-08-30T06:45:02;97500.47;;;16.20;78.01
13235;BME280;6683;48.506;9.050;2023-08-30T06:48:07;97493.38;;;16.25;77.99
13235;BME280;6683;48.506;9.050;2023-08-30T06:51:09;97498.25;;;16.28;77.84
13235;BME280;6683;48.506;9.050;2023-08-30T06:54:11;97492.44;;;16.31;77.93
13235;BME280;6683;48.506;9.050;2023-08-30T06:57:13;97490.94;;;16.35;77.96
13235;BME280;6683;48.506;9.050;2023-08-30T07:00:17;97487.53;;;16.40;77.76
13235;BME280;6683;48.506;9.050;2023-08-30T07:03:20;97483.09;;;16.45;78.17
13235;BME280;6683;48.506;9.050;2023-08-30T07:06:22;97484.84;;;16.51;78.02
13235;BME280;6683;48.506;9.050;2023-08-30T07:09:25;97479.09;;;16.59;78.08
13235;BME280;6683;48.506;9.050;2023-08-30T07:12:29;97469.09;;;16.66;77.95
13235;BME280;6683;48.506;9.050;2023-08-30T07:15:33;97480.16;;;16.75;78.06
13235;BME280;6683;48.506;9.050;2023-08-30T07:18:36;97481.88;;;16.81;77.68
13235;BME280;6683;48.506;9.050;2023-08-30T07:21:40;97481.66;;;16.88;77.91
13235;BME280;6683;48.506;9.050;2023-08-30T07:24:42;97483.13;;;16.95;77.77
13235;BME280;6683;48.506;9.050;2023-08-30T07:27:44;97476.00;;;17.01;78.02
13235;BME280;6683;48.506;9.050;2023-08-30T07:30:46;97480.13;;;17.08;77.73
13235;BME280;6683;48.506;9.050;2023-08-30T07:33:50;97479.63;;;17.11;77.79
13235;BME280;6683;48.506;9.050;2023-08-30T07:36:54;97478.66;;;17.17;77.72
13235;BME280;6683;48.506;9.050;2023-08-30T07:39:57;97485.44;;;17.25;77.82
13235;BME280;6683;48.506;9.050;2023-08-30T07:42:59;97481.78;;;17.31;77.45
13235;BME280;6683;48.506;9.050;2023-08-30T07:46:01;97479.44;;;17.34;77.39
13235;BME280;6683;48.506;9.050;2023-08-30T07:49:04;97478.69;;;17.39;77.60
13235;BME280;6683;48.506;9.050;2023-08-30T07:52:06;97481.41;;;17.44;77.57
13235;BME280;6683;48.506;9.050;2023-08-30T07:55:11;97490.56;;;17.48;77.70
13235;BME280;6683;48.506;9.050;2023-08-30T07:58:13;97490.63;;;17.53;77.82
13235;BME280;6683;48.506;9.050;2023-08-30T08:01:15;97486.75;;;17.61;77.85
13235;BME280;6683;48.506;9.050;2023-08-30T08:04:19;97481.75;;;17.69;77.86
13235;BME280;6683;48.506;9.050;2023-08-30T08:07:21;97481.34;;;17.77;77.95
13235;BME280;6683;48.506;9.050;2023-08-30T08:10:23;97474.50;;;17.86;77.87
13235;BME280;6683;48.506;9.050;2023-08-30T08:13:25;97476.16;;;17.92;77.82
13235;BME280;6683;48.506;9.050;2023-08-30T08:16:29;97473.03;;;18.00;77.58
13235;BME280;6683;48.506;9.050;2023-08-30T08:19:32;97481.94;;;18.06;77.77
13235;BME280;6683;48.506;9.050;2023-08-30T08:22:39;97476.13;;;18.14;77.79
13235;BME280;6683;48.506;9.050;2023-08-30T08:25:41;97475.41;;;18.23;77.76
13235;BME280;6683;48.506;9.050;2023-08-30T08:28:44;97482.75;;;18.33;77.60
13235;BME280;6683;48.506;9.050;2023-08-30T08:31:46;97478.25;;;18.38;77.24
13235;BME280;6683;48.506;9.050;2023-08-30T08:34:49;97483.09;;;18.42;77.35
13235;BME280;6683;48.506;9.050;2023-08-30T08:37:52;97468.75;;;18.48;77.43
13235;BME280;6683;48.506;9.050;2023-08-30T08:41:02;97466.91;;;18.53;77.52
13235;BME280;6683;48.506;9.050;2023-08-30T08:44:05;97467.25;;;18.62;77.76
13235;BME280;6683;48.506;9.050;2023-08-30T08:47:09;97466.28;;;18.73;77.81
13235;BME280;6683;48.506;9.050;2023-08-30T08:50:12;97470.63;;;18.84;78.02
13235;BME280;6683;48.506;9.050;2023-08-30T08:53:15;97471.81;;;18.98;77.78
13235;BME280;6683;48.506;9.050;2023-08-30T08:56:17;97470.03;;;19.08;77.54
13235;BME280;6683;48.506;9.050;2023-08-30T08:59:20;97469.81;;;19.20;77.78
13235;BME280;6683;48.506;9.050;2023-08-30T09:02:23;97467.72;;;19.32;77.70
13235;BME280;6683;48.506;9.050;2023-08-30T09:05:28;97465.69;;;19.44;77.89
13235;BME280;6683;48.506;9.050;2023-08-30T09:08:31;97469.78;;;19.62;77.68
13235;BME280;6683;48.506;9.050;2023-08-30T09:11:33;97464.78;;;19.75;77.54
13235;BME280;6683;48.506;9.050;2023-08-30T09:14:35;97461.03;;;19.86;77.33
13235;BME280;6683;48.506;9.050;2023-08-30T09:17:38;97458.16;;;19.98;77.66
13235;BME280;6683;48.506;9.050;2023-08-30T09:20:41;97456.28;;;20.09;77.43
13235;BME280;6683;48.506;9.050;2023-08-30T09:23:43;97461.66;;;20.19;77.68
13235;BME280;6683;48.506;9.050;2023-08-30T09:26:48;97460.38;;;20.31;77.79
13235;BME280;6683;48.506;9.050;2023-08-30T09:29:50;97450.19;;;20.53;78.06
13235;BME280;6683;48.506;9.050;2023-08-30T09:32:53;97446.97;;;20.77;78.20
13235;BME280;6683;48.506;9.050;2023-08-30T09:35:56;97443.75;;;21.00;77.67
13235;BME280;6683;48.506;9.050;2023-08-30T09:38:59;97447.22;;;21.15;77.63
13235;BME280;6683;48.506;9.050;2023-08-30T09:42:01;97447.22;;;21.25;76.83
13235;BME280;6683;48.506;9.050;2023-08-30T09:45:05;97445.84;;;21.33;77.08
13235;BME280;6683;48.506;9.050;2023-08-30T09:48:07;97447.16;;;21.40;76.88
13235;BME280;6683;48.506;9.050;2023-08-30T09:51:14;97437.22;;;21.46;76.79
13235;BME280;6683;48.506;9.050;2023-08-30T09:54:19;97444.19;;;21.52;77.04
13235;BME280;6683;48.506;9.050;2023-08-30T09:57:22;97431.53;;;21.58;76.67
13235;BME280;6683;48.506;9.050;2023-08-30T10:00:24;97437.41;;;21.60;76.15
13235;BME280;6683;48.506;9.050;2023-08-30T10:03:26;97426.97;;;21.58;76.00
13235;BME280;6683;48.506;9.050;2023-08-30T10:06:30;97433.41;;;21.57;76.04
13235;BME280;6683;48.506;9.050;2023-08-30T10:09:33;97424.00;;;21.60;75.97
13235;BME280;6683;48.506;9.050;2023-08-30T10:12:35;97428.53;;;21.64;76.40
13235;BME280;6683;48.506;9.050;2023-08-30T10:15:45;97429.00;;;21.76;76.43
13235;BME280;6683;48.506;9.050;2023-08-30T10:18:53;97416.06;;;21.93;76.13
13235;BME280;6683;48.506;9.050;2023-08-30T10:22:02;97410.31;;;22.10;76.05
13235;BME280;6683;48.506;9.050;2023-08-30T10:25:10;97417.47;;;22.24;75.37
13235;BME280;6683;48.506;9.050;2023-08-30T10:28:13;97406.31;;;22.41;75.21
13235;BME280;6683;48.506;9.050;2023-08-30T10:31:16;97413.19;;;22.57;74.69
13235;BME280;6683;48.506;9.050;2023-08-30T10:34:18;97404.03;;;22.63;73.83
13235;BME280;6683;48.506;9.050;2023-08-30T10:37:26;97406.66;;;22.68;74.84
13235;BME280;6683;48.506;9.050;2023-08-30T10:40:28;97403.25;;;22.86;74.44
13235;BME280;6683;48.506;9.050;2023-08-30T10:43:34;97396.69;;;22.97;74.39
13235;BME280;6683;48.506;9.050;2023-08-30T10:46:37;97391.78;;;23.04;73.78
13235;BME280;6683;48.506;9.050;2023-08-30T10:49:42;97396.47;;;23.18;73.69
13235;BME280;6683;48.506;9.050;2023-08-30T10:52:55;97390.41;;;23.31;73.75
13235;BME280;6683;48.506;9.050;2023-08-30T10:56:09;97390.78;;;23.48;73.38
13235;BME280;6683;48.506;9.050;2023-08-30T10:59:16;97379.53;;;23.64;73.27
13235;BME280;6683;48.506;9.050;2023-08-30T11:02:19;97376.03;;;23.82;72.46
13235;BME280;6683;48.506;9.050;2023-08-30T11:05:22;97377.66;;;24.02;71.97
13235;BME280;6683;48.506;9.050;2023-08-30T11:08:26;97372.78;;;24.23;71.39
13235;BME280;6683;48.506;9.050;2023-08-30T11:11:29;97368.84;;;24.34;70.69
13235;BME280;6683;48.506;9.050;2023-08-30T11:14:32;97371.50;;;24.52;70.96
13235;BME280;6683;48.506;9.050;2023-08-30T11:17:34;97366.63;;;24.68;69.52
13235;BME280;6683;48.506;9.050;2023-08-30T11:20:36;97370.09;;;24.87;69.37
13235;BME280;6683;48.506;9.050;2023-08-30T11:23:40;97373.00;;;25.04;68.57
13235;BME280;6683;48.506;9.050;2023-08-30T11:26:43;97369.03;;;25.15;67.91
13235;BME280;6683;48.506;9.050;2023-08-30T11:29:45;97369.13;;;25.24;67.94
13235;BME280;6683;48.506;9.050;2023-08-30T11:32:47;97367.19;;;25.24;67.46
13235;BME280;6683;48.506;9.050;2023-08-30T11:35:51;97365.44;;;25.20;66.95
13235;BME280;6683;48.506;9.050;2023-08-30T11:38:55;97356.63;;;25.28;67.14
13235;BME280;6683;48.506;9.050;2023-08-30T11:41:58;97354.09;;;25.45;66.81
13235;BME280;6683;48.506;9.050;2023-08-30T11:45:01;97354.78;;;25.64;66.62
13235;BME280;6683;48.506;9.050;2023-08-30T11:48:05;97349.78;;;25.71;66.26
13235;BME280;6683;48.506;9.050;2023-08-30T11:51:08;97355.19;;;25.71;65.84
13235;BME280;6683;48.506;9.050;2023-08-30T11:54:13;97354.88;;;25.73;65.68
13235;BME280;6683;48.506;9.050;2023-08-30T11:57:15;97352.97;;;25.73;65.49
13235;BME280;6683;48.506;9.050;2023-08-30T12:00:19;97340.88;;;25.71;65.59
13235;BME280;6683;48.506;9.050;2023-08-30T12:03:21;97337.16;;;25.67;64.92
13235;BME280;6683;48.506;9.050;2023-08-30T12:06:24;97341.00;;;25.52;65.49
13235;BME280;6683;48.506;9.050;2023-08-30T12:09:31;97337.31;;;25.48;66.14
13235;BME280;6683;48.506;9.050;2023-08-30T12:12:35;97337.72;;;25.55;65.78
13235;BME280;6683;48.506;9.050;2023-08-30T12:15:39;97339.06;;;25.66;66.11
13235;BME280;6683;48.506;9.050;2023-08-30T12:18:41;97333.25;;;25.73;65.62
13235;BME280;6683;48.506;9.050;2023-08-30T12:21:44;97327.44;;;25.79;65.09
13235;BME280;6683;48.506;9.050;2023-08-30T12:24:50;97331.00;;;25.88;64.90
13235;BME280;6683;48.506;9.050;2023-08-30T12:27:52;97335.38;;;25.98;64.85
13235;BME280;6683;48.506;9.050;2023-08-30T12:30:55;97338.16;;;26.06;64.97
13235;BME280;6683;48.506;9.050;2023-08-30T12:33:57;97327.50;;;26.24;65.09
13235;BME280;6683;48.506;9.050;2023-08-30T12:36:59;97339.97;;;26.33;64.32
13235;BME280;6683;48.506;9.050;2023-08-30T12:40:06;97334.44;;;26.38;63.80
13235;BME280;6683;48.506;9.050;2023-08-30T12:43:08;97326.81;;;26.40;63.22
13235;BME280;6683;48.506;9.050;2023-08-30T12:46:11;97322.53;;;26.48;62.34
13235;BME280;6683;48.506;9.050;2023-08-30T12:49:13;97327.13;;;26.39;61.76
13235;BME280;6683;48.506;9.050;2023-08-30T12:52:15;97333.03;;;26.19;61.09
13235;BME280;6683;48.506;9.050;2023-08-30T12:55:20;97323.25;;;25.95;61.25
13235;BME280;6683;48.506;9.050;2023-08-30T12:58:22;97327.84;;;25.73;61.15
13235;BME280;6683;48.506;9.050;2023-08-30T13:01:24;97329.28;;;25.57;60.97
13235;BME280;6683;48.506;9.050;2023-08-30T13:04:26;97331.09;;;25.34;61.23
13235;BME280;6683;48.506;9.050;2023-08-30T13:07:28;97334.00;;;25.10;61.23
13235;BME280;6683;48.506;9.050;2023-08-30T13:10:32;97337.09;;;24.90;61.62
13235;BME280;6683;48.506;9.050;2023-08-30T13:13:34;97332.28;;;24.74;61.61
13235;BME280;6683;48.506;9.050;2023-08-30T13:16:36;97334.09;;;24.59;61.78
13235;BME280;6683;48.506;9.050;2023-08-30T13:19:38;97318.97;;;24.45;62.07
13235;BME280;6683;48.506;9.050;2023-08-30T13:22:40;97322.75;;;24.30;61.91
13235;BME280;6683;48.506;9.050;2023-08-30T13:25:44;97326.41;;;24.21;62.32
13235;BME280;6683;48.506;9.050;2023-08-30T13:28:46;97319.22;;;24.16;62.53
13235;BME280;6683;48.506;9.050;2023-08-30T13:31:48;97320.59;;;24.14;62.49
13235;BME280;6683;48.506;9.050;2023-08-30T13:34:50;97312.81;;;24.12;62.71
13235;BME280;6683;48.506;9.050;2023-08-30T13:37:52;97313.59;;;24.13;62.94
13235;BME280;6683;48.506;9.050;2023-08-30T13:40:59;97313.91;;;24.11;63.17
13235;BME280;6683;48.506;9.050;2023-08-30T13:44:01;97303.63;;;24.13;63.27
13235;BME280;6683;48.506;9.050;2023-08-30T13:47:04;97317.31;;;24.17;63.22
13235;BME280;6683;48.506;9.050;2023-08-30T13:50:07;97309.53;;;24.15;62.96
13235;BME280;6683;48.506;9.050;2023-08-30T13:53:09;97311.72;;;24.13;63.17
13235;BME280;6683;48.506;9.050;2023-08-30T13:56:14;97308.59;;;24.06;62.75
13235;BME280;6683;48.506;9.050;2023-08-30T13:59:16;97307.84;;;24.01;63.17
13235;BME280;6683;48.506;9.050;2023-08-30T14:02:18;97300.63;;;23.96;63.32
13235;BME280;6683;48.506;9.050;2023-08-30T14:05:20;97304.41;;;23.95;63.01
13235;BME280;6683;48.506;9.050;2023-08-30T14:08:22;97303.69;;;23.90;62.72
13235;BME280;6683;48.506;9.050;2023-08-30T14:11:26;97299.78;;;23.82;62.42
13235;BME280;6683;48.506;9.050;2023-08-30T14:14:28;97297.72;;;23.74;62.32
13235;BME280;6683;48.506;9.050;2023-08-30T14:17:30;97291.09;;;23.66;62.51
13235;BME280;6683;48.506;9.050;2023-08-30T14:20:32;97299.03;;;23.58;62.33
13235;BME280;6683;48.506;9.050;2023-08-30T14:23:34;97299.19;;;23.48;62.60
13235;BME280;6683;48.506;9.050;2023-08-30T14:26:38;97299.03;;;23.39;62.93
13235;BME280;6683;48.506;9.050;2023-08-30T14:29:40;97303.41;;;23.35;63.38
13235;BME280;6683;48.506;9.050;2023-08-30T14:32:42;97307.19;;;23.34;63.70
13235;BME280;6683;48.506;9.050;2023-08-30T14:35:44;97307.72;;;23.36;63.39
13235;BME280;6683;48.506;9.050;2023-08-30T14:38:46;97298.81;;;23.36;63.07
13235;BME280;6683;48.506;9.050;2023-08-30T14:41:50;97306.91;;;23.36;63.23
13235;BME280;6683;48.506;9.050;2023-08-30T14:44:54;97305.78;;;23.37;63.32
13235;BME280;6683;48.506;9.050;2023-08-30T14:47:56;97308.50;;;23.37;63.53
13235;BME280;6683;48.506;9.050;2023-08-30T14:50:59;97309.31;;;23.37;63.59
13235;BME280;6683;48.506;9.050;2023-08-30T14:54:01;97309.59;;;23.36;63.03
13235;BME280;6683;48.506;9.050;2023-08-30T14:57:05;97305.03;;;23.31;63.38
13235;BME280;6683;48.506;9.050;2023-08-30T15:00:07;97299.44;;;23.28;63.49
13235;BME280;6683;48.506;9.050;2023-08-30T15:03:10;97300.81;;;23.25;63.35
13235;BME280;6683;48.506;9.050;2023-08-30T15:06:12;97301.16;;;23.19;63.41
13235;BME280;6683;48.506;9.050;2023-08-30T15:09:14;97301.84;;;23.05;63.42
13235;BME280;6683;48.506;9.050;2023-08-30T15:12:18;97301.97;;;22.95;64.07
13235;BME280;6683;48.506;9.050;2023-08-30T15:15:20;97303.69;;;22.86;64.35
13235;BME280;6683;48.506;9.050;2023-08-30T15:18:22;97303.53;;;22.78;64.68
13235;BME280;6683;48.506;9.050;2023-08-30T15:21:24;97299.53;;;22.75;65.20
13235;BME280;6683;48.506;9.050;2023-08-30T15:24:27;97300.59;;;22.74;65.77
13235;BME280;6683;48.506;9.050;2023-08-30T15:27:30;97304.41;;;22.73;65.92
13235;BME280;6683;48.506;9.050;2023-08-30T15:30:32;97299.53;;;22.75;65.55
13235;BME280;6683;48.506;9.050;2023-08-30T15:33:34;97290.09;;;22.78;66.12
13235;BME280;6683;48.506;9.050;2023-08-30T15:36:36;97298.69;;;22.80;66.00
13235;BME280;6683;48.506;9.050;2023-08-30T15:39:38;97302.41;;;22.84;66.33
13235;BME280;6683;48.506;9.050;2023-08-30T15:42:42;97306.69;;;22.85;66.19
13235;BME280;6683;48.506;9.050;2023-08-30T15:45:44;97303.47;;;22.83;66.02
13235;BME280;6683;48.506;9.050;2023-08-30T15:48:46;97315.03;;;22.83;66.29
13235;BME280;6683;48.506;9.050;2023-08-30T15:51:50;97309.06;;;22.86;66.36
13235;BME280;6683;48.506;9.050;2023-08-30T15:54:52;97310.13;;;22.90;66.50
13235;BME280;6683;48.506;9.050;2023-08-30T15:57:56;97304.16;;;22.93;66.63
13235;BME280;6683;48.506;9.050;2023-08-30T16:01:03;97303.53;;;23.01;66.77
13235;BME280;6683;48.506;9.050;2023-08-30T16:04:06;97301.84;;;23.05;66.29
13235;BME280;6683;48.506;9.050;2023-08-30T16:07:08;97293.72;;;23.11;66.38
13235;BME280;6683;48.506;9.050;2023-08-30T16:10:12;97293.66;;;23.16;65.77
13235;BME280;6683;48.506;9.050;2023-08-30T16:13:19;97291.41;;;23.23;65.84
13235;BME280;6683;48.506;9.050;2023-08-30T16:16:21;97294.56;;;23.30;65.52
13235;BME280;6683;48.506;9.050;2023-08-30T16:19:23;97296.94;;;23.36;65.46
13235;BME280;6683;48.506;9.050;2023-08-30T16:22:26;97294.38;;;23.45;65.00